createdAt,value
2023-09-14T00:04:50.942Z,16.90
2023-09-14T00:09:49.853Z,16.88
2023-09-14T00:14:48.801Z,16.83
2023-09-14T00:19:47.714Z,16.77
2023-09-14T00:24:46.694Z,16.73
2023-09-14T00:29:45.653Z,16.79
2023-09-14T00:34:44.603Z,16.77
2023-09-14T00:39:43.555Z,16.79
2023-09-14T00:44:42.430Z,16.73
2023-09-14T00:49:41.458Z,16.74
2023-09-14T00:54:40.401Z,16.72
2023-09-14T00:59:39.344Z,16.70
2023-09-14T01:04:38.308Z,16.64
2023-09-14T01:09:37.285Z,16.65
2023-09-14T01:14:36.116Z,16.64
2023-09-14T01:19:35.114Z,16.61
2023-09-14T01:24:34.129Z,16.58
2023-09-14T01:29:32.955Z,16.59
2023-09-14T01:34:31.967Z,16.58
2023-09-14T01:39:30.911Z,16.58
2023-09-14T01:44:29.844Z,16.54
2023-09-14T01:49:28.746Z,16.54
2023-09-14T01:54:27.864Z,16.51
2023-09-14T01:59:26.726Z,16.49
2023-09-14T02:04:25.715Z,16.42
2023-09-14T02:09:24.566Z,16.37
2023-09-14T02:14:23.578Z,16.33
2023-09-14T02:19:22.465Z,16.29
2023-09-14T02:24:21.417Z,16.29
2023-09-14T02:29:20.477Z,16.26
2023-09-14T02:34:19.384Z,16.25
2023-09-14T02:39:18.320Z,16.25
2023-09-14T02:44:17.212Z,16.21
2023-09-14T02:49:16.236Z,16.17
2023-09-14T02:54:15.165Z,16.13
2023-09-14T02:59:14.085Z,16.05
2023-09-14T03:04:13.031Z,16.00
2023-09-14T03:09:11.990Z,15.96
2023-09-14T03:14:10.894Z,15.90
2023-09-14T03:19:09.894Z,15.83
2023-09-14T03:24:08.788Z,15.70
2023-09-14T03:29:07.780Z,15.66
2023-09-14T03:34:06.765Z,15.60
2023-09-14T03:39:05.706Z,15.54
2023-09-14T03:44:04.609Z,15.51
2023-09-14T03:49:03.711Z,15.50
2023-09-14T03:54:02.535Z,15.43
2023-09-14T03:59:01.435Z,15.35
2023-09-14T04:04:00.436Z,15.15
2023-09-14T04:08:59.381Z,15.14
2023-09-14T04:13:58.448Z,15.08
2023-09-14T04:18:57.274Z,15.05
2023-09-14T04:23:56.161Z,15.01
2023-09-14T04:28:55.117Z,14.89
2023-09-14T04:33:54.034Z,14.83
2023-09-14T04:38:52.984Z,14.77
2023-09-14T04:43:51.940Z,14.67
2023-09-14T04:48:50.870Z,14.69
2023-09-14T04:53:49.822Z,14.58
2023-09-14T04:58:49.024Z,14.51
2023-09-14T05:03:47.890Z,14.40
2023-09-14T05:08:47.073Z,14.36
2023-09-14T05:13:45.719Z,14.36
2023-09-14T05:18:44.961Z,14.37
2023-09-14T05:23:43.691Z,14.33
2023-09-14T05:28:42.586Z,14.27
2023-09-14T05:33:41.567Z,14.23
2023-09-14T05:38:40.450Z,14.48
2023-09-14T05:43:39.390Z,14.51
2023-09-14T05:48:38.291Z,14.59
2023-09-14T05:53:37.167Z,14.58
2023-09-14T05:58:36.241Z,14.63
2023-09-14T06:03:35.143Z,14.74
2023-09-14T06:08:34.171Z,14.89
2023-09-14T06:13:33.017Z,14.96
2023-09-14T06:18:31.990Z,15.05
2023-09-14T06:23:30.866Z,15.07
2023-09-14T06:28:29.883Z,15.17
2023-09-14T06:33:28.768Z,15.23
2023-09-14T06:38:27.927Z,15.29
2023-09-14T06:43:26.707Z,15.33
2023-09-14T06:48:25.625Z,15.44
2023-09-14T06:53:24.789Z,15.52
2023-09-14T06:58:23.617Z,15.63
2023-09-14T07:03:22.512Z,15.73
2023-09-14T07:08:21.660Z,15.84
2023-09-14T07:13:20.425Z,15.90
2023-09-14T07:18:19.337Z,15.99
2023-09-14T07:23:18.313Z,16.08
2023-09-14T07:28:17.294Z,16.17
2023-09-14T07:33:16.182Z,16.24
2023-09-14T07:38:15.084Z,16.26
2023-09-14T07:43:14.180Z,16.29
2023-09-14T07:48:13.144Z,16.39
2023-09-14T07:53:11.974Z,16.46
2023-09-14T07:58:10.970Z,16.55
2023-09-14T08:03:10.037Z,16.57
2023-09-14T08:08:08.916Z,16.64
2023-09-14T08:13:07.846Z,16.72
2023-09-14T08:18:07.058Z,16.77
2023-09-14T08:23:05.694Z,16.87
2023-09-14T08:28:04.664Z,16.94
2023-09-14T08:33:03.637Z,16.99
2023-09-14T08:38:02.586Z,17.09
2023-09-14T08:43:01.472Z,17.19
2023-09-14T08:48:00.519Z,17.25
2023-09-14T08:52:59.347Z,17.31
2023-09-14T08:57:58.429Z,17.32
2023-09-14T09:02:57.257Z,17.30
2023-09-14T09:07:56.497Z,17.24
2023-09-14T09:12:55.201Z,17.24
2023-09-14T09:17:54.133Z,17.34
2023-09-14T09:22:53.024Z,17.39
2023-09-14T09:27:52.090Z,17.45
2023-09-14T09:32:51.001Z,17.39
2023-09-14T09:37:49.940Z,17.50
2023-09-14T09:42:48.838Z,17.66
2023-09-14T09:47:47.808Z,17.78
2023-09-14T09:52:46.785Z,17.78
2023-09-14T09:57:45.686Z,17.79
2023-09-14T10:02:44.707Z,17.75
2023-09-14T10:07:43.555Z,17.73
2023-09-14T10:12:42.595Z,17.78
2023-09-14T10:17:41.520Z,17.87
2023-09-14T10:22:40.375Z,17.90
2023-09-14T10:27:39.426Z,17.93
2023-09-14T10:32:38.318Z,18.01
2023-09-14T10:37:37.389Z,18.05
2023-09-14T10:42:36.226Z,18.12
2023-09-14T10:47:35.210Z,18.08
2023-09-14T10:52:34.144Z,18.11
2023-09-14T10:57:33.206Z,18.12
2023-09-14T11:02:45.795Z,18.18
2023-09-14T11:07:31.083Z,18.26
2023-09-14T11:12:30.118Z,18.23
2023-09-14T11:17:28.887Z,18.24
2023-09-14T11:22:28.996Z,18.15
2023-09-14T11:27:27.025Z,18.15
2023-09-14T11:32:26.508Z,18.12
2023-09-14T11:37:25.235Z,18.17
2023-09-14T11:42:24.761Z,18.23
2023-09-14T11:47:26.849Z,18.27
2023-09-14T11:52:21.412Z,18.31
2023-09-14T11:57:20.482Z,18.39
2023-09-14T12:02:19.475Z,18.39
2023-09-14T12:07:18.379Z,18.36
2023-09-14T12:12:17.335Z,18.33
2023-09-14T12:17:16.267Z,18.36
2023-09-14T12:22:15.133Z,18.42
2023-09-14T12:27:14.648Z,18.49
2023-09-14T12:32:13.129Z,18.58
2023-09-14T12:37:11.982Z,18.71
2023-09-14T12:42:10.985Z,18.78
2023-09-14T12:47:09.957Z,18.79
2023-09-14T12:52:08.885Z,18.83
2023-09-14T12:57:07.805Z,18.83
2023-09-14T13:02:06.761Z,18.89
2023-09-14T13:07:05.826Z,18.91
2023-09-14T13:12:04.623Z,18.94
2023-09-14T13:17:03.713Z,19.04
2023-09-14T13:22:02.678Z,19.09
2023-09-14T13:27:01.582Z,19.16
2023-09-14T13:32:00.451Z,19.19
2023-09-14T13:36:59.774Z,19.22
2023-09-14T13:41:58.372Z,19.23
2023-09-14T13:46:57.294Z,19.24
2023-09-14T13:51:56.286Z,19.23
2023-09-14T13:56:55.255Z,19.16
2023-09-14T14:01:54.218Z,19.19
2023-09-14T14:06:53.084Z,19.20
2023-09-14T14:11:52.023Z,19.19
2023-09-14T14:16:51.013Z,19.16
2023-09-14T14:21:49.993Z,19.07
2023-09-14T14:26:49.156Z,19.00
2023-09-14T14:31:47.942Z,18.98
2023-09-14T14:36:46.792Z,18.97
2023-09-14T14:41:46.841Z,18.91
2023-09-14T14:46:44.848Z,18.89
2023-09-14T14:51:43.563Z,18.91
2023-09-14T14:56:42.522Z,18.89
2023-09-14T15:01:41.644Z,18.94
2023-09-14T15:06:40.522Z,18.94
2023-09-14T15:11:39.413Z,18.94
2023-09-14T15:16:38.695Z,18.97
2023-09-14T15:21:37.265Z,18.98
2023-09-14T15:26:36.212Z,19.01
2023-09-14T15:31:35.174Z,19.05
2023-09-14T15:36:34.119Z,19.07
2023-09-14T15:41:33.098Z,19.07
2023-09-14T15:46:32.109Z,19.08
2023-09-14T15:51:31.138Z,19.12
2023-09-14T15:56:29.869Z,19.12
2023-09-14T16:01:28.827Z,19.05
2023-09-14T16:06:27.821Z,19.07
2023-09-14T16:11:26.985Z,19.04
2023-09-14T16:16:25.798Z,19.01
2023-09-14T16:21:24.682Z,18.98
2023-09-14T16:26:23.602Z,18.98
2023-09-14T16:31:22.605Z,18.96
2023-09-14T16:36:21.460Z,18.91
2023-09-14T16:41:20.411Z,18.91
2023-09-14T16:46:19.461Z,18.88
2023-09-14T16:51:18.305Z,18.81
2023-09-14T16:56:17.263Z,18.76
2023-09-14T17:01:16.335Z,18.57
2023-09-14T17:06:15.169Z,18.34
2023-09-14T17:11:14.156Z,18.12
2023-09-14T17:16:13.198Z,17.94
2023-09-14T17:21:12.097Z,17.79
2023-09-14T17:26:11.056Z,17.59
2023-09-14T17:31:09.932Z,17.53
2023-09-14T17:36:08.845Z,17.35
2023-09-14T17:41:07.814Z,17.16
2023-09-14T17:46:06.766Z,17.09
2023-09-14T17:51:05.811Z,16.97
2023-09-14T17:56:04.619Z,16.84
2023-09-14T18:01:03.780Z,16.64
2023-09-14T18:06:04.681Z,16.36
2023-09-14T18:11:01.488Z,16.16
2023-09-14T18:16:00.448Z,16.09
2023-09-14T18:21:00.840Z,16.05
2023-09-14T18:25:58.326Z,16.16
2023-09-14T18:30:57.299Z,16.06
2023-09-14T18:35:56.597Z,15.72
2023-09-14T18:40:55.176Z,15.62
2023-09-14T18:45:54.100Z,15.78
2023-09-14T18:50:53.075Z,15.73
2023-09-14T18:55:52.101Z,15.54
2023-09-14T19:00:51.054Z,15.62
2023-09-14T19:05:49.914Z,15.41
2023-09-14T19:10:48.830Z,15.45
2023-09-14T19:15:47.883Z,15.41
2023-09-14T19:20:46.751Z,15.32
2023-09-14T19:25:45.696Z,15.47
2023-09-14T19:30:44.659Z,15.23
2023-09-14T19:35:43.646Z,14.96
2023-09-14T19:40:42.507Z,14.97
2023-09-14T19:45:41.575Z,14.96
2023-09-14T19:50:40.438Z,14.73
2023-09-14T19:55:39.366Z,14.40
2023-09-14T20:00:38.361Z,14.44
2023-09-14T20:05:37.358Z,14.59
2023-09-14T20:10:36.310Z,14.38
2023-09-14T20:15:35.224Z,14.30
2023-09-14T20:20:34.133Z,14.49
2023-09-14T20:25:33.061Z,14.56
2023-09-14T20:30:32.167Z,14.33
2023-09-14T20:35:31.025Z,14.26
2023-09-14T20:40:29.901Z,14.36
2023-09-14T20:45:28.900Z,14.21
2023-09-14T20:50:27.852Z,14.36
2023-09-14T20:55:26.756Z,14.34
2023-09-14T21:00:25.724Z,14.31
2023-09-14T21:05:24.626Z,13.93
2023-09-14T21:10:23.703Z,14.04
2023-09-14T21:15:22.550Z,13.98
2023-09-14T21:20:21.498Z,13.97
2023-09-14T21:25:20.458Z,14.05
2023-09-14T21:30:19.471Z,13.93
2023-09-14T21:35:18.321Z,13.61
2023-09-14T21:40:17.384Z,13.32
2023-09-14T21:45:16.282Z,13.45
2023-09-14T21:50:15.255Z,13.49
2023-09-14T21:55:14.251Z,13.51
2023-09-14T22:00:13.064Z,13.43
2023-09-14T22:05:12.074Z,13.16
2023-09-14T22:10:11.233Z,13.16
2023-09-14T22:15:09.963Z,13.06
2023-09-14T22:20:08.929Z,13.04
2023-09-14T22:25:07.855Z,12.63
2023-09-14T22:30:06.798Z,12.73
2023-09-14T22:35:05.711Z,12.51
2023-09-14T22:40:04.700Z,12.23
2023-09-14T22:45:03.637Z,12.35
2023-09-14T22:50:02.586Z,12.40
2023-09-14T22:55:01.609Z,12.32
2023-09-14T23:00:00.462Z,12.11
2023-09-14T23:04:59.431Z,12.30
2023-09-14T23:09:58.408Z,12.25
2023-09-14T23:14:57.365Z,12.18
2023-09-14T23:19:56.279Z,12.25
2023-09-14T23:24:55.246Z,12.22
2023-09-14T23:29:54.156Z,12.22
2023-09-14T23:34:53.120Z,11.97
2023-09-14T23:39:52.060Z,11.59
2023-09-14T23:44:50.962Z,11.79
2023-09-14T23:49:49.970Z,11.64
2023-09-14T23:54:48.937Z,11.38
2023-09-14T23:59:47.857Z,11.22
